createdAt,value
2018-03-21T00:00:10.380Z,2.90
2018-03-21T00:02:44.153Z,2.90
2018-03-21T00:05:18.670Z,2.90
2018-03-21T00:07:52.621Z,2.90
2018-03-21T00:13:07.095Z,2.80
2018-03-21T00:15:40.911Z,2.80
2018-03-21T00:18:15.053Z,2.70
2018-03-21T00:20:48.887Z,2.70
2018-03-21T00:23:22.723Z,2.70
2018-03-21T00:25:56.363Z,2.70
2018-03-21T00:28:30.050Z,2.70
2018-03-21T00:31:05.070Z,2.70
2018-03-21T00:33:39.309Z,2.60
2018-03-21T00:36:13.850Z,2.60
2018-03-21T00:38:47.737Z,2.60
2018-03-21T00:41:22.270Z,2.50
2018-03-21T00:43:56.189Z,2.50
2018-03-21T00:46:30.505Z,2.50
2018-03-21T00:49:04.639Z,2.50
2018-03-21T00:51:38.460Z,2.50
2018-03-21T00:54:12.270Z,2.40
2018-03-21T00:56:45.994Z,2.40
2018-03-21T00:59:19.797Z,2.40
2018-03-21T01:01:53.552Z,2.40
2018-03-21T01:04:28.284Z,2.40
2018-03-21T01:07:02.429Z,2.30
2018-03-21T01:09:36.112Z,2.30
2018-03-21T01:12:09.813Z,2.30
2018-03-21T01:14:43.567Z,2.30
2018-03-21T01:17:17.438Z,2.30
2018-03-21T01:19:51.874Z,2.30
2018-03-21T01:22:26.653Z,2.30
2018-03-21T01:25:00.516Z,2.30
2018-03-21T01:27:34.607Z,2.30
2018-03-21T01:30:08.484Z,2.20
2018-03-21T01:32:42.281Z,2.30
2018-03-21T01:35:16.925Z,2.30
2018-03-21T01:37:50.774Z,2.30
2018-03-21T01:40:24.552Z,2.30
2018-03-21T01:42:58.250Z,2.30
2018-03-21T01:45:32.012Z,2.20
2018-03-21T01:48:05.609Z,2.10
2018-03-21T01:50:39.474Z,2.10
2018-03-21T01:53:13.137Z,2.10
2018-03-21T01:55:47.700Z,2.20
2018-03-21T01:58:21.331Z,2.20
2018-03-21T02:00:55.036Z,2.30
2018-03-21T02:03:29.681Z,2.20
2018-03-21T02:06:03.686Z,2.20
2018-03-21T02:08:37.391Z,2.10
2018-03-21T02:11:11.164Z,2.10
2018-03-21T02:13:44.976Z,2.10
2018-03-21T02:16:18.837Z,2.00
2018-03-21T02:18:52.589Z,2.00
2018-03-21T02:21:27.080Z,2.00
2018-03-21T02:24:00.977Z,2.00
2018-03-21T02:26:34.815Z,2.00
2018-03-21T02:29:08.541Z,2.00
2018-03-21T02:31:42.155Z,2.00
2018-03-21T02:34:16.698Z,2.10
2018-03-21T02:36:50.565Z,2.00
2018-03-21T02:39:25.253Z,2.00
2018-03-21T02:41:59.265Z,2.00
2018-03-21T02:44:34.068Z,2.00
2018-03-21T02:47:08.901Z,1.90
2018-03-21T02:49:42.793Z,1.90
2018-03-21T02:52:16.450Z,1.90
2018-03-21T02:54:50.106Z,1.90
2018-03-21T02:57:23.866Z,1.80
2018-03-21T02:59:57.596Z,1.80
2018-03-21T03:02:31.427Z,1.80
2018-03-21T03:05:05.149Z,1.80
2018-03-21T03:07:39.615Z,1.90
2018-03-21T03:10:13.598Z,1.80
2018-03-21T03:12:47.410Z,1.90
2018-03-21T03:15:22.124Z,1.90
2018-03-21T03:17:56.149Z,1.80
2018-03-21T03:20:30.241Z,1.80
2018-03-21T03:23:04.665Z,1.80
2018-03-21T03:25:38.673Z,1.90
2018-03-21T03:28:13.405Z,1.80
2018-03-21T03:30:47.474Z,1.80
2018-03-21T03:33:21.123Z,1.80
2018-03-21T03:35:55.373Z,1.80
2018-03-21T03:38:29.996Z,1.80
2018-03-21T03:41:03.797Z,1.80
2018-03-21T03:43:37.707Z,1.80
2018-03-21T03:46:11.478Z,1.70
2018-03-21T03:48:46.009Z,1.70
2018-03-21T03:51:20.154Z,1.70
2018-03-21T03:53:59.761Z,1.70
2018-03-21T03:56:34.806Z,1.70
2018-03-21T03:59:08.922Z,1.70
2018-03-21T04:01:42.714Z,1.60
2018-03-21T04:04:16.782Z,1.60
2018-03-21T04:06:51.080Z,1.60
2018-03-21T04:09:24.710Z,1.50
2018-03-21T04:11:58.563Z,1.60
2018-03-21T04:14:32.965Z,1.50
2018-03-21T04:17:07.561Z,1.50
2018-03-21T04:19:41.528Z,1.40
2018-03-21T04:22:16.202Z,2.30
2018-03-21T04:24:50.497Z,1.40
2018-03-21T04:27:24.239Z,1.40
2018-03-21T04:29:58.775Z,1.40
2018-03-21T04:32:33.770Z,1.30
2018-03-21T04:35:07.800Z,1.20
2018-03-21T04:37:41.620Z,1.30
2018-03-21T04:40:15.505Z,1.30
2018-03-21T04:42:49.238Z,1.30
2018-03-21T04:45:23.527Z,1.30
2018-03-21T04:47:57.739Z,1.20
2018-03-21T04:50:32.231Z,1.30
2018-03-21T04:53:06.826Z,1.30
2018-03-21T04:55:42.065Z,1.30
2018-03-21T04:58:16.948Z,1.20
2018-03-21T05:00:51.140Z,1.30
2018-03-21T05:03:25.155Z,1.30
2018-03-21T05:05:59.830Z,1.20
2018-03-21T05:08:34.652Z,1.20
2018-03-21T05:11:08.616Z,1.30
2018-03-21T05:13:42.171Z,1.20
2018-03-21T05:16:16.152Z,1.20
2018-03-21T05:18:50.390Z,1.20
2018-03-21T05:21:25.548Z,1.30
2018-03-21T05:23:59.422Z,1.30
2018-03-21T05:26:33.173Z,1.30
2018-03-21T05:29:07.031Z,1.20
2018-03-21T05:31:40.705Z,1.20
2018-03-21T05:34:14.538Z,1.20
2018-03-21T05:36:48.393Z,-3.60
2018-03-21T05:39:22.494Z,1.30
2018-03-21T05:41:56.318Z,1.40
2018-03-21T05:44:30.231Z,1.50
2018-03-21T05:47:04.072Z,1.50
2018-03-21T05:49:38.013Z,1.60
2018-03-21T05:52:11.810Z,1.60
2018-03-21T05:54:45.786Z,1.80
2018-03-21T05:57:19.646Z,1.90
2018-03-21T05:59:53.713Z,2.00
2018-03-21T06:02:27.496Z,2.00
2018-03-21T06:05:02.817Z,2.20
2018-03-21T06:07:37.772Z,2.40
2018-03-21T06:10:11.925Z,2.40
2018-03-21T06:12:46.229Z,2.80
2018-03-21T06:15:20.526Z,3.00
2018-03-21T06:17:54.362Z,3.00
2018-03-21T06:20:28.381Z,3.10
2018-03-21T06:23:02.763Z,3.30
2018-03-21T06:25:36.592Z,3.30
2018-03-21T06:28:10.369Z,3.40
2018-03-21T06:30:44.041Z,3.50
2018-03-21T06:33:17.811Z,4.10
2018-03-21T06:35:51.730Z,4.60
2018-03-21T06:38:25.427Z,5.10
2018-03-21T06:40:59.926Z,5.30
2018-03-21T06:43:34.449Z,6.10
2018-03-21T06:46:08.089Z,6.80
2018-03-21T06:48:41.805Z,6.90
2018-03-21T06:51:16.228Z,8.50
2018-03-21T06:53:50.738Z,8.50
2018-03-21T06:56:24.504Z,8.80
2018-03-21T06:58:58.929Z,9.40
2018-03-21T07:01:33.082Z,9.40
2018-03-21T07:04:06.876Z,10.30
2018-03-21T07:06:41.403Z,12.00
2018-03-21T07:09:15.479Z,12.00
2018-03-21T07:11:49.426Z,12.40
2018-03-21T07:14:35.489Z,12.80
2018-03-21T07:17:11.402Z,12.50
2018-03-21T07:19:45.376Z,12.50
2018-03-21T07:22:19.278Z,12.20
2018-03-21T07:24:54.062Z,11.80
2018-03-21T07:27:27.765Z,11.80
2018-03-21T07:30:02.399Z,11.40
2018-03-21T07:32:36.376Z,11.40
2018-03-21T07:35:10.166Z,12.30
2018-03-21T07:37:44.903Z,13.50
2018-03-21T07:40:19.066Z,13.50
2018-03-21T07:42:52.886Z,14.70
2018-03-21T07:45:27.414Z,16.50
2018-03-21T07:48:02.282Z,17.20
2018-03-21T07:50:36.271Z,17.10
2018-03-21T07:53:10.039Z,17.80
2018-03-21T07:55:43.788Z,18.30
2018-03-21T07:58:18.554Z,20.00
2018-03-21T08:00:53.290Z,20.00
2018-03-21T08:03:27.736Z,20.90
2018-03-21T08:06:01.704Z,21.10
2018-03-21T08:08:35.467Z,21.30
2018-03-21T08:11:09.735Z,21.40
2018-03-21T08:13:43.682Z,21.50
2018-03-21T08:16:18.643Z,22.10
2018-03-21T08:18:52.420Z,22.10
2018-03-21T08:21:26.245Z,22.70
2018-03-21T08:24:00.942Z,23.10
2018-03-21T08:26:35.273Z,23.00
2018-03-21T08:29:09.345Z,25.20
2018-03-21T08:31:43.605Z,24.00
2018-03-21T08:34:18.389Z,24.70
2018-03-21T08:36:52.664Z,25.10
2018-03-21T08:39:26.308Z,24.80
2018-03-21T08:42:01.199Z,24.70
2018-03-21T08:44:35.272Z,24.70
2018-03-21T08:47:09.105Z,24.40
2018-03-21T08:49:42.880Z,24.80
2018-03-21T08:52:16.656Z,25.20
2018-03-21T08:54:50.450Z,25.70
2018-03-21T08:57:24.334Z,25.90
2018-03-21T08:59:58.105Z,25.90
2018-03-21T09:02:32.337Z,25.40
2018-03-21T09:05:07.250Z,24.40
2018-03-21T09:07:41.450Z,24.40
2018-03-21T09:10:16.074Z,24.50
2018-03-21T09:12:50.724Z,25.20
2018-03-21T09:15:24.935Z,25.20
2018-03-21T09:17:59.551Z,26.20
2018-03-21T09:20:33.535Z,26.20
2018-03-21T09:23:08.290Z,25.70
2018-03-21T09:25:42.457Z,25.60
2018-03-21T09:28:16.266Z,25.40
2018-03-21T09:30:50.086Z,24.90
2018-03-21T09:33:24.057Z,24.90
2018-03-21T09:35:58.019Z,24.70
2018-03-21T09:38:32.090Z,25.10
2018-03-21T09:41:06.739Z,26.30
2018-03-21T09:43:41.752Z,27.10
2018-03-21T09:46:15.865Z,27.10
2018-03-21T09:48:50.255Z,26.90
2018-03-21T09:51:24.034Z,26.30
2018-03-21T09:53:59.014Z,25.50
2018-03-21T09:56:33.425Z,25.20
2018-03-21T09:59:07.170Z,24.90
2018-03-21T10:01:41.118Z,24.30
2018-03-21T10:04:14.964Z,24.00
2018-03-21T10:06:49.564Z,23.60
2018-03-21T10:09:23.782Z,23.60
2018-03-21T10:11:57.677Z,23.60
2018-03-21T10:14:31.603Z,23.60
2018-03-21T10:17:05.534Z,24.00
2018-03-21T10:19:39.273Z,24.40
2018-03-21T10:22:13.158Z,25.00
2018-03-21T10:24:47.851Z,25.40
2018-03-21T10:27:21.950Z,25.40
2018-03-21T10:29:56.097Z,25.40
2018-03-21T10:32:30.478Z,25.40
2018-03-21T10:35:04.883Z,25.40
2018-03-21T10:37:39.623Z,25.20
2018-03-21T10:40:13.858Z,25.20
2018-03-21T10:42:47.680Z,24.70
2018-03-21T10:45:21.575Z,23.80
2018-03-21T10:47:55.473Z,23.10
2018-03-21T10:50:29.360Z,22.90
2018-03-21T10:53:03.006Z,22.90
2018-03-21T10:55:37.202Z,22.90
2018-03-21T10:58:11.044Z,22.70
2018-03-21T11:00:45.179Z,22.90
2018-03-21T11:03:19.173Z,23.00
2018-03-21T11:05:53.869Z,23.10
2018-03-21T11:08:28.125Z,23.20
2018-03-21T11:11:02.632Z,23.50
2018-03-21T11:13:36.758Z,23.40
2018-03-21T11:16:11.316Z,23.80
2018-03-21T11:18:45.478Z,23.90
2018-03-21T11:21:19.309Z,23.90
2018-03-21T11:23:53.178Z,23.70
2018-03-21T11:26:27.697Z,23.30
2018-03-21T11:29:02.487Z,23.20
2018-03-21T11:31:36.837Z,23.20
2018-03-21T11:34:10.511Z,22.90
2018-03-21T11:36:45.333Z,22.60
2018-03-21T11:39:19.598Z,22.60
2018-03-21T11:41:53.535Z,22.80
2018-03-21T11:44:27.444Z,22.80
2018-03-21T11:47:01.336Z,22.70
2018-03-21T11:49:35.130Z,22.30
2018-03-21T11:52:09.343Z,22.10
2018-03-21T11:54:45.880Z,21.20
2018-03-21T11:57:20.025Z,21.20
2018-03-21T11:59:54.729Z,20.90
2018-03-21T12:02:28.805Z,20.90
2018-03-21T12:05:02.707Z,21.10
2018-03-21T12:07:37.478Z,21.10
2018-03-21T12:10:11.511Z,21.00
2018-03-21T12:12:45.632Z,20.80
2018-03-21T12:15:19.370Z,20.60
2018-03-21T12:17:53.940Z,20.40
2018-03-21T12:20:28.049Z,20.40
2018-03-21T12:23:02.553Z,20.00
2018-03-21T12:25:36.921Z,20.00
2018-03-21T12:28:11.405Z,19.90
2018-03-21T12:30:45.329Z,19.80
2018-03-21T12:33:19.814Z,19.50
2018-03-21T12:35:53.963Z,19.30
2018-03-21T12:38:27.880Z,18.80
2018-03-21T12:41:01.543Z,18.60
2018-03-21T12:43:35.407Z,18.50
2018-03-21T12:46:09.872Z,17.70
2018-03-21T12:48:43.878Z,17.40
2018-03-21T12:51:17.771Z,17.10
2018-03-21T12:53:51.443Z,17.00
2018-03-21T12:56:26.589Z,17.00
2018-03-21T12:59:01.383Z,17.10
2018-03-21T13:01:36.024Z,17.30
2018-03-21T13:04:10.403Z,17.20
2018-03-21T13:06:45.183Z,17.50
2018-03-21T13:09:19.425Z,17.40
2018-03-21T13:11:53.403Z,17.60
2018-03-21T13:14:27.314Z,17.50
2018-03-21T13:17:01.935Z,17.30
2018-03-21T13:19:35.927Z,17.10
2018-03-21T13:22:10.006Z,16.90
2018-03-21T13:24:45.152Z,16.70
2018-03-21T13:27:19.411Z,16.60
2018-03-21T13:29:53.002Z,16.60
2018-03-21T13:32:27.291Z,16.70
2018-03-21T13:35:01.237Z,16.70
2018-03-21T13:37:35.100Z,16.50
2018-03-21T13:40:09.047Z,16.40
2018-03-21T13:42:42.960Z,16.30
2018-03-21T13:45:16.947Z,16.30
2018-03-21T13:47:51.686Z,15.60
2018-03-21T13:50:26.395Z,15.50
2018-03-21T13:53:00.289Z,15.40
2018-03-21T13:55:34.166Z,15.50
2018-03-21T13:58:07.993Z,15.70
2018-03-21T14:00:41.970Z,15.70
2018-03-21T14:03:16.734Z,15.50
2018-03-21T14:05:50.884Z,15.40
2018-03-21T14:08:24.575Z,15.30
2018-03-21T14:10:58.913Z,15.20
2018-03-21T14:13:32.617Z,15.00
2018-03-21T14:16:06.643Z,14.90
2018-03-21T14:18:40.494Z,14.70
2018-03-21T14:21:14.227Z,14.50
2018-03-21T14:23:48.753Z,14.40
2018-03-21T14:26:22.868Z,14.20
2018-03-21T14:28:56.793Z,14.10
2018-03-21T14:31:31.513Z,14.10
2018-03-21T14:34:05.850Z,14.10
2018-03-21T14:36:40.036Z,13.90
2018-03-21T14:39:13.874Z,13.90
2018-03-21T14:41:47.687Z,13.70
2018-03-21T14:44:21.466Z,13.50
2018-03-21T14:46:55.955Z,13.30
2018-03-21T14:49:30.906Z,13.10
2018-03-21T14:52:05.165Z,12.90
2018-03-21T14:54:39.706Z,12.70
2018-03-21T14:57:13.880Z,12.60
2018-03-21T14:59:47.596Z,12.60
2018-03-21T15:08:18.577Z,12.70
2018-03-21T15:10:52.901Z,12.70
2018-03-21T15:13:27.696Z,12.60
2018-03-21T15:16:01.764Z,12.50
2018-03-21T15:18:35.921Z,12.40
2018-03-21T15:21:09.881Z,12.30
2018-03-21T15:23:44.949Z,12.00
2018-03-21T15:26:19.928Z,11.90
2018-03-21T15:28:53.936Z,11.90
2018-03-21T15:31:27.844Z,12.00
2018-03-21T15:34:01.959Z,11.90
2018-03-21T15:36:35.904Z,11.90
2018-03-21T15:39:10.111Z,11.70
2018-03-21T15:41:44.031Z,11.60
2018-03-21T15:44:18.896Z,11.40
2018-03-21T15:46:53.017Z,11.40
2018-03-21T15:49:28.038Z,11.40
2018-03-21T15:52:02.059Z,11.40
2018-03-21T15:54:35.740Z,11.40
2018-03-21T15:57:09.733Z,11.50
2018-03-21T15:59:43.554Z,11.40
2018-03-21T16:02:17.907Z,11.30
2018-03-21T16:04:52.355Z,11.10
2018-03-21T16:07:26.919Z,11.00
2018-03-21T16:10:01.848Z,11.00
2018-03-21T16:12:35.730Z,10.90
2018-03-21T16:15:09.768Z,10.90
2018-03-21T16:17:43.562Z,10.70
2018-03-21T16:20:17.630Z,10.50
2018-03-21T16:22:52.107Z,10.40
2018-03-21T16:25:26.973Z,10.10
2018-03-21T16:28:01.115Z,10.10
2018-03-21T16:30:35.928Z,10.20
2018-03-21T16:33:11.032Z,10.20
2018-03-21T16:35:45.091Z,10.10
2018-03-21T16:38:19.753Z,10.00
2018-03-21T16:40:54.802Z,9.90
2018-03-21T16:43:28.729Z,9.90
2018-03-21T16:46:02.843Z,9.80
2018-03-21T16:48:36.831Z,9.80
2018-03-21T16:51:11.472Z,9.70
2018-03-21T16:53:45.595Z,9.70
2018-03-21T16:56:19.665Z,9.70
2018-03-21T16:58:54.499Z,9.70
2018-03-21T17:01:29.644Z,9.80
2018-03-21T17:04:03.612Z,9.70
2018-03-21T17:06:37.409Z,9.70
2018-03-21T17:09:12.193Z,9.50
2018-03-21T17:11:47.531Z,9.40
2018-03-21T17:14:21.880Z,9.30
2018-03-21T17:16:55.732Z,9.20
2018-03-21T17:19:30.100Z,9.20
2018-03-21T17:22:04.305Z,9.20
2018-03-21T17:24:39.024Z,9.00
2018-03-21T17:27:13.023Z,8.90
2018-03-21T17:29:46.871Z,8.80
2018-03-21T17:32:20.849Z,8.80
2018-03-21T17:34:55.479Z,8.80
2018-03-21T17:37:29.626Z,8.80
2018-03-21T17:40:03.241Z,8.80
2018-03-21T17:42:37.083Z,8.80
2018-03-21T17:45:10.937Z,8.70
2018-03-21T17:47:44.597Z,8.70
2018-03-21T17:50:19.418Z,8.70
2018-03-21T17:52:54.180Z,8.70
2018-03-21T17:55:28.365Z,8.70
2018-03-21T17:58:02.112Z,8.70
2018-03-21T18:00:36.856Z,8.70
2018-03-21T18:03:11.011Z,8.70
2018-03-21T18:05:44.904Z,8.70
2018-03-21T18:08:18.920Z,8.70
2018-03-21T18:10:53.008Z,8.70
2018-03-21T18:13:26.895Z,8.70
2018-03-21T18:16:00.708Z,8.70
2018-03-21T18:18:35.525Z,8.70
2018-03-21T18:21:10.521Z,8.70
2018-03-21T18:23:45.513Z,8.60
2018-03-21T18:26:20.692Z,8.60
2018-03-21T18:28:55.130Z,8.60
2018-03-21T18:31:29.241Z,8.50
2018-03-21T18:34:03.382Z,8.50
2018-03-21T18:36:37.451Z,8.40
2018-03-21T18:39:11.819Z,8.30
2018-03-21T18:41:46.057Z,8.30
2018-03-21T18:44:21.021Z,8.30
2018-03-21T18:46:55.431Z,8.30
2018-03-21T18:49:29.483Z,8.30
2018-03-21T18:52:03.500Z,8.40
2018-03-21T18:54:37.348Z,8.30
2018-03-21T18:57:11.205Z,8.30
2018-03-21T18:59:44.982Z,8.30
2018-03-21T19:02:19.690Z,8.30
2018-03-21T19:04:53.831Z,8.20
2018-03-21T19:07:27.827Z,8.20
2018-03-21T19:10:02.551Z,8.20
2018-03-21T19:12:36.983Z,8.20
2018-03-21T19:15:12.104Z,8.20
2018-03-21T19:17:46.183Z,8.20
2018-03-21T19:20:20.396Z,8.10
2018-03-21T19:22:55.629Z,8.10
2018-03-21T19:25:29.856Z,8.00
2018-03-21T19:28:04.156Z,8.00
2018-03-21T19:30:38.737Z,7.90
2018-03-21T19:33:12.472Z,7.90
2018-03-21T19:35:47.113Z,7.80
2018-03-21T19:38:20.976Z,7.80
2018-03-21T19:40:55.356Z,7.80
2018-03-21T19:43:29.442Z,7.80
2018-03-21T19:46:03.001Z,7.80
2018-03-21T19:48:36.925Z,7.80
2018-03-21T19:51:11.551Z,7.80
2018-03-21T19:53:45.748Z,7.70
2018-03-21T19:56:19.447Z,7.70
2018-03-21T19:58:54.089Z,7.80
2018-03-21T20:01:28.232Z,7.70
2018-03-21T20:04:02.364Z,7.70
2018-03-21T20:06:36.154Z,7.70
2018-03-21T20:09:10.895Z,7.60
2018-03-21T20:11:45.092Z,7.60
2018-03-21T20:14:19.127Z,7.50
2018-03-21T20:16:53.754Z,7.50
2018-03-21T20:19:27.948Z,7.50
2018-03-21T20:22:02.549Z,7.50
2018-03-21T20:24:36.592Z,7.50
2018-03-21T20:27:10.771Z,7.50
2018-03-21T20:29:45.136Z,7.50
2018-03-21T20:32:20.212Z,7.40
2018-03-21T20:34:54.737Z,7.50
2018-03-21T20:37:29.268Z,7.50
2018-03-21T20:40:03.643Z,7.40
2018-03-21T20:42:38.914Z,7.40
2018-03-21T20:45:13.631Z,7.40
2018-03-21T20:47:48.272Z,7.30
2018-03-21T20:50:22.644Z,7.30
2018-03-21T20:52:57.005Z,7.30
2018-03-21T20:55:31.556Z,7.20
2018-03-21T20:58:05.775Z,7.20
2018-03-21T21:00:39.608Z,7.20
2018-03-21T21:03:13.395Z,7.20
2018-03-21T21:05:47.161Z,7.10
2018-03-21T21:08:20.678Z,7.10
2018-03-21T21:10:54.263Z,7.20
2018-03-21T21:13:28.718Z,7.10
2018-03-21T21:16:02.277Z,7.10
2018-03-21T21:18:36.208Z,7.00
2018-03-21T21:21:09.800Z,7.00
2018-03-21T21:23:44.206Z,6.90
2018-03-21T21:26:18.393Z,6.90
2018-03-21T21:28:52.370Z,6.90
2018-03-21T21:31:26.973Z,6.80
2018-03-21T21:34:00.832Z,6.80
2018-03-21T21:36:34.635Z,6.80
2018-03-21T21:39:08.444Z,6.70
2018-03-21T21:41:42.435Z,6.70
2018-03-21T21:44:16.377Z,6.70
2018-03-21T21:46:50.583Z,6.70
2018-03-21T21:49:25.355Z,6.70
2018-03-21T21:51:59.491Z,6.60
2018-03-21T21:54:33.628Z,6.60
2018-03-21T21:57:08.084Z,6.60
2018-03-21T21:59:42.132Z,6.60
2018-03-21T22:02:16.083Z,6.60
2018-03-21T22:04:50.635Z,6.70
2018-03-21T22:07:24.935Z,6.60
2018-03-21T22:09:58.704Z,6.70
2018-03-21T22:12:33.390Z,6.70
2018-03-21T22:15:07.288Z,6.70
2018-03-21T22:17:41.479Z,6.70
2018-03-21T22:20:15.461Z,6.70
2018-03-21T22:22:50.055Z,6.70
2018-03-21T22:25:24.215Z,6.70
2018-03-21T22:27:57.958Z,6.70
2018-03-21T22:30:32.090Z,6.70
2018-03-21T22:33:05.996Z,6.70
2018-03-21T22:35:39.943Z,6.70
2018-03-21T22:38:13.861Z,6.60
2018-03-21T22:40:48.027Z,6.60
2018-03-21T22:43:22.730Z,6.50
2018-03-21T22:45:56.682Z,6.50
2018-03-21T22:48:31.387Z,6.40
2018-03-21T22:51:06.027Z,6.30
2018-03-21T22:53:40.822Z,6.30
2018-03-21T22:56:15.037Z,6.30
2018-03-21T22:58:48.891Z,6.30
2018-03-21T23:01:22.762Z,6.30
2018-03-21T23:03:57.378Z,6.30
2018-03-21T23:06:31.252Z,6.30
2018-03-21T23:09:06.051Z,6.30
2018-03-21T23:11:39.927Z,6.30
2018-03-21T23:14:14.468Z,6.30
2018-03-21T23:16:49.216Z,6.30
2018-03-21T23:19:24.003Z,6.30
2018-03-21T23:21:57.963Z,5.90
2018-03-21T23:24:31.853Z,6.30
2018-03-21T23:27:06.346Z,6.20
2018-03-21T23:29:40.590Z,6.20
2018-03-21T23:32:14.526Z,6.30
2018-03-21T23:34:48.537Z,6.20
2018-03-21T23:37:23.117Z,6.30
2018-03-21T23:39:57.197Z,6.20
2018-03-21T23:42:31.137Z,6.30
2018-03-21T23:45:05.015Z,6.30
2018-03-21T23:47:38.914Z,6.30
2018-03-21T23:50:13.492Z,6.30
2018-03-21T23:52:48.209Z,6.20
2018-03-21T23:55:22.928Z,6.20
2018-03-21T23:57:57.085Z,6.10
